Time;durP1;ratioP1;P1;durP2;ratioP2;P2;SDS_P1;SDS_P2;PMS_P1;PMS_P2;Temp;Humidity;BMP_temperature;BMP_pressure;BME280_temperature;BME280_humidity;BME280_pressure;Samples;Min_cycle;Max_cycle;Signal;HPM_P1;HPM_P2
2021/07/31 00:01:34;;;;;;;6.20;5.60;;;;;;;21.28;67.38;96211.38;6224776;23;20020;-76
2021/07/31 00:04:02;;;;;;;6.32;5.60;;;;;;;21.30;67.44;96214.56;6214212;23;20534;-76
2021/07/31 00:06:29;;;;;;;6.07;5.18;;;;;;;21.30;67.37;96217.22;6214736;23;20023;-76
2021/07/31 00:08:57;;;;;;;6.97;5.63;;;;;;;21.29;67.16;96212.97;6214646;23;20031;-76
2021/07/31 00:11:25;;;;;;;6.13;5.28;;;;;;;21.28;67.24;96219.34;6214284;23;20033;-76
2021/07/31 00:13:52;;;;;;;5.45;4.95;;;;;;;21.27;67.16;96215.06;6214002;23;20464;-76
2021/07/31 00:16:22;;;;;;;6.28;5.65;;;;;;;21.28;67.08;96214.03;6214845;23;20095;-76
2021/07/31 00:18:49;;;;;;;6.45;5.60;;;;;;;21.26;67.08;96212.69;6214777;23;20111;-76
2021/07/31 00:21:21;;;;;;;6.85;6.03;;;;;;;21.23;67.29;96214.00;6214742;23;20369;-76
2021/07/31 00:23:48;;;;;;;5.63;5.13;;;;;;;21.23;67.16;96216.66;6214358;23;20020;-76
2021/07/31 00:26:16;;;;;;;7.25;5.25;;;;;;;21.20;67.25;96217.16;6214509;23;20017;-76
2021/07/31 00:28:43;;;;;;;5.97;5.15;;;;;;;21.19;67.36;96218.25;6214786;23;20054;-76
2021/07/31 00:31:11;;;;;;;6.05;5.28;;;;;;;21.18;67.30;96217.41;6214306;23;20083;-76
2021/07/31 00:33:40;;;;;;;6.40;5.53;;;;;;;21.18;67.52;96222.72;6214461;23;20021;-76
2021/07/31 00:36:07;;;;;;;7.47;5.80;;;;;;;21.17;67.11;96221.13;6214421;23;20017;-76
2021/07/31 00:38:35;;;;;;;7.60;5.65;;;;;;;21.16;67.05;96213.44;6214655;23;20028;-76
2021/07/31 00:41:02;;;;;;;6.53;5.38;;;;;;;21.16;67.17;96213.44;6214707;23;20025;-76
2021/07/31 00:43:30;;;;;;;5.53;5.03;;;;;;;21.16;66.62;96213.44;6214415;23;20075;-76
2021/07/31 00:45:57;;;;;;;5.10;4.60;;;;;;;21.17;66.48;96215.84;6214498;23;20020;-76
2021/07/31 00:48:25;;;;;;;5.95;4.95;;;;;;;21.20;66.57;96225.13;6214463;23;20032;-76
2021/07/31 00:50:54;;;;;;;6.22;5.35;;;;;;;21.19;66.34;96220.88;6214591;23;20028;-76
2021/07/31 00:53:21;;;;;;;5.57;4.93;;;;;;;21.20;66.31;96222.47;6214167;23;20028;-76
2021/07/31 00:55:50;;;;;;;6.35;5.20;;;;;;;21.19;66.30;96223.53;6214019;23;20016;-76
2021/07/31 00:58:18;;;;;;;5.07;4.68;;;;;;;21.19;66.53;96226.19;6223832;23;20012;-76
2021/07/31 01:00:46;;;;;;;5.40;4.90;;;;;;;21.17;66.38;96215.03;6237067;23;20024;-76
2021/07/31 01:03:13;;;;;;;5.82;5.13;;;;;;;21.16;66.01;96229.34;6238840;23;20024;-77
2021/07/31 01:05:41;;;;;;;6.10;4.47;;;;;;;21.13;65.90;96227.22;6237512;23;20035;-76
2021/07/31 01:08:10;;;;;;;6.32;5.10;;;;;;;21.10;65.42;96225.88;6238394;23;20021;-76
2021/07/31 01:10:38;;;;;;;5.28;4.68;;;;;;;21.08;65.50;96227.19;6238000;23;20058;-76
2021/07/31 01:13:07;;;;;;;5.05;4.30;;;;;;;21.07;65.48;96214.97;6236604;23;20080;-76
2021/07/31 01:15:34;;;;;;;6.80;4.22;;;;;;;21.05;65.09;96219.75;6237478;23;20017;-76
2021/07/31 01:18:02;;;;;;;5.10;4.60;;;;;;;21.05;65.00;96223.19;6237560;23;20027;-76
2021/07/31 01:20:29;;;;;;;5.45;4.50;;;;;;;21.04;64.95;96224.25;6231368;23;20024;-76
2021/07/31 01:22:58;;;;;;;5.15;3.78;;;;;;;21.04;64.12;96220.81;6216235;23;20027;-76
2021/07/31 01:25:25;;;;;;;4.57;3.97;;;;;;;21.05;64.29;96238.31;6216408;23;20021;-76
2021/07/31 01:27:53;;;;;;;4.32;3.92;;;;;;;21.03;63.55;96232.47;6216373;23;20043;-76
2021/07/31 01:30:20;;;;;;;4.70;3.63;;;;;;;21.02;63.71;96228.22;6216057;23;20415;-76
2021/07/31 01:32:48;;;;;;;5.60;3.92;;;;;;;21.01;63.48;96226.63;6216000;23;20024;-76
2021/07/31 01:35:15;;;;;;;4.85;3.63;;;;;;;20.99;62.83;96229.53;6216181;23;20033;-76
2021/07/31 01:37:43;;;;;;;3.83;3.45;;;;;;;20.97;63.07;96224.50;6216146;23;20020;-76
2021/07/31 01:40:13;;;;;;;5.80;3.97;;;;;;;20.99;62.91;96224.25;6216192;23;20360;-76
2021/07/31 01:42:42;;;;;;;5.00;3.53;;;;;;;20.99;62.33;96235.63;6216129;23;20106;-76
2021/07/31 01:45:10;;;;;;;4.45;3.38;;;;;;;21.01;62.42;96231.91;6216126;23;20020;-76
2021/07/31 01:47:38;;;;;;;4.80;3.97;;;;;;;21.01;61.76;96227.41;6216029;23;20352;-76
2021/07/31 01:50:06;;;;;;;4.25;3.45;;;;;;;21.00;62.03;96231.13;6235309;23;20043;-76
2021/07/31 01:52:34;;;;;;;4.22;3.15;;;;;;;20.99;61.59;96219.72;6237106;23;20020;-76
2021/07/31 01:55:01;;;;;;;3.28;2.97;;;;;;;20.96;61.40;96214.91;6235860;23;20021;-76
2021/07/31 01:57:30;;;;;;;3.40;3.10;;;;;;;20.95;61.20;96229.25;6235431;23;20024;-76
2021/07/31 01:59:59;;;;;;;3.50;2.80;;;;;;;20.95;61.58;96218.66;6235296;23;20029;-76
2021/07/31 02:02:26;;;;;;;4.28;2.75;;;;;;;20.95;60.87;96228.47;6234849;23;20020;-77
2021/07/31 02:04:54;;;;;;;3.17;2.72;;;;;;;20.95;60.82;96234.56;6229903;23;20032;-76
2021/07/31 02:07:21;;;;;;;4.22;2.70;;;;;;;20.92;60.18;96229.75;6215604;23;20021;-76
2021/07/31 02:09:49;;;;;;;3.35;2.80;;;;;;;20.90;59.44;96231.06;6216008;23;20016;-76
2021/07/31 02:12:16;;;;;;;3.75;2.40;;;;;;;20.86;59.65;96230.78;6214910;23;20024;-76
2021/07/31 02:14:45;;;;;;;3.70;2.55;;;;;;;20.85;58.90;96229.19;6234512;23;20024;-76
2021/07/31 02:17:16;;;;;;;3.22;2.15;;;;;;;20.82;58.96;96235.00;6224425;23;20078;-76
2021/07/31 02:19:43;;;;;;;3.75;2.88;;;;;;;20.80;58.22;96225.72;6216022;23;20333;-76
2021/07/31 02:22:11;;;;;;;3.03;2.17;;;;;;;20.78;58.84;96234.72;6216072;23;20055;-77
2021/07/31 02:24:38;;;;;;;5.07;2.03;;;;;;;20.80;58.81;96236.31;6215723;23;20020;-76
2021/07/31 02:27:05;;;;;;;3.63;2.30;;;;;;;20.79;58.73;96232.84;6216099;23;20020;-76
2021/07/31 02:29:33;;;;;;;3.38;2.50;;;;;;;20.79;59.10;96235.50;6216056;23;20028;-76
2021/07/31 02:32:02;;;;;;;3.20;1.92;;;;;;;20.79;58.51;96235.50;6215926;23;20020;-76
2021/07/31 02:34:29;;;;;;;3.13;1.90;;;;;;;20.77;58.93;96233.13;6215135;23;20020;-76
2021/07/31 02:36:57;;;;;;;4.47;2.70;;;;;;;20.75;58.82;96232.59;6215570;23;20023;-76
2021/07/31 02:39:24;;;;;;;2.50;2.05;;;;;;;20.75;58.57;96229.94;6215438;23;20487;-76
2021/07/31 02:41:51;;;;;;;7.05;2.58;;;;;;;20.72;58.44;96229.63;6215109;23;20017;-76
2021/07/31 02:44:19;;;;;;;2.30;1.98;;;;;;;20.71;58.41;96228.84;6215290;23;20039;-76
2021/07/31 02:46:46;;;;;;;3.60;1.98;;;;;;;20.72;58.38;96221.69;6215571;23;20055;-76
2021/07/31 02:49:15;;;;;;;3.08;2.05;;;;;;;20.72;58.31;96219.03;6215480;23;20021;-76
2021/07/31 02:51:43;;;;;;;3.30;2.10;;;;;;;20.70;58.05;96213.97;6215673;23;20334;-76
2021/07/31 02:54:10;;;;;;;5.07;2.08;;;;;;;20.67;57.77;96226.97;6214951;23;20043;-76
2021/07/31 02:56:38;;;;;;;3.22;1.73;;;;;;;20.58;55.90;96222.13;6215557;23;20361;-76
2021/07/31 02:59:05;;;;;;;4.47;1.80;;;;;;;20.52;55.16;96220.44;6215633;23;20025;-76
2021/07/31 03:01:34;;;;;;;3.92;1.70;;;;;;;20.49;55.48;96214.88;6215577;23;20024;-76
2021/07/31 03:04:02;;;;;;;3.75;1.92;;;;;;;20.45;56.18;96222.53;6214958;23;20337;-76
2021/07/31 03:06:31;;;;;;;2.53;2.03;;;;;;;20.44;56.72;96218.28;6215144;23;20490;-76
2021/07/31 03:08:58;;;;;;;2.13;1.83;;;;;;;20.46;56.90;96220.66;6215190;23;20383;-76
2021/07/31 03:11:25;;;;;;;2.60;1.70;;;;;;;20.44;56.60;96218.28;6215445;23;20028;-76
2021/07/31 03:13:53;;;;;;;2.03;1.80;;;;;;;20.46;57.13;96221.47;6214992;23;20027;-76
2021/07/31 03:16:21;;;;;;;3.03;1.90;;;;;;;20.47;56.38;96217.78;6214991;23;20472;-76
2021/07/31 03:18:48;;;;;;;1.38;1.27;;;;;;;20.49;56.06;96225.47;6215267;23;20032;-76
2021/07/31 03:21:16;;;;;;;4.10;1.70;;;;;;;20.48;55.43;96222.00;6215402;23;20028;-76
2021/07/31 03:23:45;;;;;;;2.58;1.70;;;;;;;20.46;55.44;96221.47;6232773;23;20035;-77
2021/07/31 03:26:12;;;;;;;4.40;1.50;;;;;;;20.46;55.28;96231.28;6237712;23;20024;-76
2021/07/31 03:28:39;;;;;;;5.18;1.70;;;;;;;20.47;55.24;96231.03;6236799;23;20419;-76
2021/07/31 03:31:07;;;;;;;4.60;1.85;;;;;;;20.50;55.02;96233.16;6228856;23;20024;-76
2021/07/31 03:33:34;;;;;;;3.45;1.70;;;;;;;20.51;55.10;96220.69;6214998;23;20461;-76
2021/07/31 03:36:02;;;;;;;4.53;2.10;;;;;;;20.49;55.38;96226.28;6214756;23;20020;-76
2021/07/31 03:38:29;;;;;;;4.32;1.50;;;;;;;20.46;55.63;96225.97;6215296;23;20024;-76
2021/07/31 03:40:59;;;;;;;2.33;1.52;;;;;;;20.46;55.49;96234.72;6215225;23;20016;-76
2021/07/31 03:43:27;;;;;;;2.45;1.38;;;;;;;20.47;55.18;96228.38;6214746;23;20024;-76
2021/07/31 03:45:54;;;;;;;6.03;1.83;;;;;;;20.47;55.66;96230.22;6214619;23;20032;-76
2021/07/31 03:48:22;;;;;;;5.13;1.95;;;;;;;20.45;55.43;96230.47;6214875;23;20400;-76
2021/07/31 03:50:50;;;;;;;1.80;1.42;;;;;;;20.46;55.19;96232.06;6214938;23;20360;-76
2021/07/31 03:53:17;;;;;;;4.85;1.50;;;;;;;20.46;55.33;96234.72;6214215;23;20075;-76
2021/07/31 03:55:46;;;;;;;2.60;1.55;;;;;;;20.46;55.16;96228.63;6214451;23;20031;-76
2021/07/31 03:58:15;;;;;;;3.58;1.05;;;;;;;20.45;54.82;96227.81;6215062;23;20020;-76
2021/07/31 04:00:43;;;;;;;5.10;2.45;;;;;;;20.42;54.58;96230.19;6214993;23;20028;-76
2021/07/31 04:03:11;;;;;;;2.63;1.95;;;;;;;20.38;54.59;96236.00;6214573;23;20031;-76
2021/07/31 04:05:42;;;;;;;6.88;1.92;;;;;;;20.38;54.76;96229.91;6214932;23;20020;-76
2021/07/31 04:08:10;;;;;;;4.80;1.70;;;;;;;20.38;54.55;96230.69;6214581;23;20059;-76
2021/07/31 04:10:37;;;;;;;2.42;1.50;;;;;;;20.38;54.33;96221.94;6225930;23;20024;-76
2021/07/31 04:13:05;;;;;;;3.65;1.20;;;;;;;20.37;54.75;96236.22;6231808;23;20025;-76
2021/07/31 04:15:34;;;;;;;3.53;1.50;;;;;;;20.38;54.58;96240.50;6231567;23;20472;-76
2021/07/31 04:18:02;;;;;;;3.45;1.17;;;;;;;20.37;54.50;96234.38;6217381;23;20021;-76
2021/07/31 04:20:29;;;;;;;3.25;1.10;;;;;;;20.33;54.21;96238.59;6215305;23;20029;-76
2021/07/31 04:22:57;;;;;;;4.22;1.30;;;;;;;20.30;54.73;96249.69;6214586;23;20024;-76
2021/07/31 04:25:24;;;;;;;3.38;1.40;;;;;;;20.27;53.96;96242.25;6214678;23;20021;-76
2021/07/31 04:27:52;;;;;;;2.03;1.45;;;;;;;20.27;54.44;96252.03;6214671;23;20024;-76
2021/07/31 04:30:19;;;;;;;1.95;1.20;;;;;;;20.28;54.05;96251.78;6214664;23;20028;-76
2021/07/31 04:32:48;;;;;;;2.83;1.50;;;;;;;20.29;53.40;96257.88;6214434;23;20050;-76
2021/07/31 04:35:16;;;;;;;5.78;1.60;;;;;;;20.30;53.18;96252.34;6214454;23;20050;-76
2021/07/31 04:37:43;;;;;;;2.22;1.20;;;;;;;20.31;53.30;96253.13;6214394;23;20044;-76
2021/07/31 04:40:12;;;;;;;1.90;1.00;;;;;;;20.29;52.68;96258.69;6214388;23;20103;-76
2021/07/31 04:42:39;;;;;;;4.78;1.05;;;;;;;20.27;52.58;96255.50;6214475;23;20039;-76
2021/07/31 04:45:07;;;;;;;3.72;1.05;;;;;;;20.23;51.62;96257.06;6214648;23;20452;-76
2021/07/31 04:47:38;;;;;;;4.35;1.10;;;;;;;20.21;51.62;96255.72;6214528;23;20016;-76
2021/07/31 04:50:09;;;;;;;17.88;11.30;;;;;;;20.19;52.46;96241.91;6214773;23;20075;-76
2021/07/31 04:52:37;;;;;;;9.25;5.22;;;;;;;20.19;52.12;96255.16;6214499;23;20035;-76
2021/07/31 04:55:06;;;;;;;3.70;1.60;;;;;;;20.16;51.90;96249.31;6214174;23;20017;-76
2021/07/31 04:57:34;;;;;;;5.18;1.30;;;;;;;20.14;51.84;96248.75;6214985;23;20204;-76
2021/07/31 05:00:02;;;;;;;3.58;1.20;;;;;;;20.12;51.54;96245.56;6214609;23;20027;-76
2021/07/31 05:02:32;;;;;;;1.30;0.75;;;;;;;20.08;51.85;96249.75;6214138;23;20025;-76
2021/07/31 05:05:00;;;;;;;1.73;1.05;;;;;;;20.07;52.36;96256.13;6214450;23;20071;-77
2021/07/31 05:07:29;;;;;;;2.58;1.00;;;;;;;20.05;52.31;96252.91;6214490;23;20059;-77
2021/07/31 05:09:57;;;;;;;2.72;1.00;;;;;;;20.05;51.81;96262.69;6214519;23;20056;-76
2021/07/31 05:12:24;;;;;;;22.48;12.60;;;;;;;20.04;52.46;96267.19;6214146;23;20020;-77
2021/07/31 05:14:52;;;;;;;10.60;7.03;;;;;;;20.04;52.43;96267.19;6214307;23;20021;-76
2021/07/31 05:17:20;;;;;;;5.38;3.28;;;;;;;20.05;52.41;96266.16;6214784;23;20024;-76
2021/07/31 05:19:48;;;;;;;4.53;1.45;;;;;;;20.10;52.61;96265.41;6214498;23;20036;-76
2021/07/31 05:22:15;;;;;;;2.60;1.45;;;;;;;20.09;51.78;96259.28;6214531;23;20028;-77
2021/07/31 05:24:45;;;;;;;6.43;1.92;;;;;;;20.11;51.62;96259.84;6214217;23;20025;-76
2021/07/31 05:27:12;;;;;;;1.45;0.88;;;;;;;20.10;51.83;96258.25;6214592;23;20028;-76
2021/07/31 05:29:40;;;;;;;3.72;1.27;;;;;;;20.08;51.31;96260.34;6213893;23;20028;-76
2021/07/31 05:32:08;;;;;;;3.63;1.05;;;;;;;20.07;51.34;96265.88;6214489;23;20027;-76
2021/07/31 05:34:36;;;;;;;1.85;0.88;;;;;;;20.04;51.64;96266.41;6213549;23;20020;-76
2021/07/31 05:37:03;;;;;;;3.88;1.08;;;;;;;20.02;51.98;96271.94;6214956;23;20340;-76
2021/07/31 05:39:33;;;;;;;2.80;1.20;;;;;;;20.01;52.00;96273.00;6214339;23;20017;-76
2021/07/31 05:42:05;;;;;;;5.57;1.10;;;;;;;19.99;51.72;96272.44;6214180;23;20028;-76
2021/07/31 05:44:33;;;;;;;3.33;1.00;;;;;;;19.97;51.39;96271.91;6213624;23;20027;-76
2021/07/31 05:47:00;;;;;;;3.42;1.27;;;;;;;19.95;51.55;96269.50;6214572;23;20020;-76
2021/07/31 05:49:30;;;;;;;2.80;0.88;;;;;;;19.93;51.48;96273.44;6215679;23;20025;-76
2021/07/31 05:51:58;;;;;;;3.33;1.35;;;;;;;19.90;51.45;96268.66;6216447;23;20025;-76
2021/07/31 05:56:52;;;;;;;13.75;4.53;;;;;;;19.86;51.72;96276.28;6127010;23;20026;-77
2021/07/31 05:59:21;;;;;;;4.45;1.75;;;;;;;19.85;51.77;96279.97;6127984;23;20076;-77
2021/07/31 06:01:48;;;;;;;1.88;1.30;;;;;;;19.85;51.71;96273.88;6127677;23;20028;-77
2021/07/31 06:04:16;;;;;;;1.13;0.60;;;;;;;19.86;51.42;96278.13;6127816;23;20397;-77
2021/07/31 06:06:43;;;;;;;2.58;0.80;;;;;;;19.85;51.15;96279.16;6127558;23;20026;-77
2021/07/31 06:09:11;;;;;;;4.25;0.90;;;;;;;19.83;51.29;96284.72;6126469;23;20022;-75
2021/07/31 06:11:38;;;;;;;4.90;1.00;;;;;;;19.83;51.38;96273.31;6126302;23;20045;-75
2021/07/31 06:14:05;;;;;;;3.38;1.10;;;;;;;19.80;51.39;96271.97;6125491;23;20032;-75
2021/07/31 06:16:34;;;;;;;3.05;1.27;;;;;;;19.80;51.39;96279.13;6126271;23;20026;-75
2021/07/31 06:19:02;;;;;;;3.55;0.90;;;;;;;19.80;51.42;96287.06;6127517;23;20077;-77
2021/07/31 06:21:30;;;;;;;5.53;0.85;;;;;;;19.80;51.48;96281.78;6126552;23;20454;-77
2021/07/31 06:23:57;;;;;;;2.05;0.93;;;;;;;19.83;51.63;96275.97;6126913;23;20026;-78
2021/07/31 06:26:24;;;;;;;4.32;1.00;;;;;;;19.87;51.84;96266.50;6127501;23;20022;-77
2021/07/31 06:28:52;;;;;;;4.18;0.90;;;;;;;19.91;51.63;96272.88;6127519;23;20029;-77
2021/07/31 06:31:19;;;;;;;2.97;0.90;;;;;;;19.96;51.71;96273.75;6127961;23;20022;-77
2021/07/31 06:33:48;;;;;;;1.80;0.80;;;;;;;20.00;51.92;96281.19;6126774;23;20026;-78
2021/07/31 06:36:18;;;;;;;45.20;29.55;;;;;;;20.04;52.28;96283.06;6127220;23;20033;-77
2021/07/31 06:38:46;;;;;;;6.97;3.30;;;;;;;20.05;51.37;96284.69;6127616;23;20032;-77
2021/07/31 06:41:14;;;;;;;5.50;1.98;;;;;;;20.06;51.20;96278.34;6127515;23;20026;-76
2021/07/31 06:43:41;;;;;;;10.25;3.25;;;;;;;20.05;51.28;96276.75;6127275;23;20390;-77
2021/07/31 06:46:11;;;;;;;8.07;1.50;;;;;;;20.11;51.46;96272.28;6127576;23;20025;-76
2021/07/31 06:48:38;;;;;;;3.92;1.33;;;;;;;20.14;51.82;96277.91;6127659;23;20049;-77
2021/07/31 06:51:09;;;;;;;3.65;1.55;;;;;;;20.21;51.88;96276.91;6127603;23;20036;-77
2021/07/31 06:53:37;;;;;;;1.55;1.13;;;;;;;20.25;51.68;96278.78;6126658;23;20036;-74
2021/07/31 06:56:04;;;;;;;4.07;1.38;;;;;;;20.30;51.58;96280.69;6146855;23;20080;-77
2021/07/31 06:58:32;;;;;;;2.00;1.30;;;;;;;20.34;51.49;96281.78;6155730;23;20358;-76
2021/07/31 07:00:59;;;;;;;8.82;1.42;;;;;;;20.39;51.52;96287.13;6155965;23;20032;-76
2021/07/31 07:03:27;;;;;;;4.13;1.40;;;;;;;20.45;51.65;96283.47;6155012;23;20072;-76
2021/07/31 07:05:54;;;;;;;3.13;1.17;;;;;;;20.47;51.21;96280.56;6154796;23;20017;-76
2021/07/31 07:08:23;;;;;;;3.20;0.93;;;;;;;20.49;51.30;96289.84;6154637;23;20029;-75
2021/07/31 07:10:51;;;;;;;3.08;1.30;;;;;;;20.51;51.22;96279.00;6155452;23;20021;-75
2021/07/31 07:13:37;;;;;;;3.65;1.48;;;;;;;20.55;51.53;96274.78;6156384;23;20071;-76
2021/07/31 07:16:05;;;;;;;4.60;1.20;;;;;;;20.59;51.14;96273.25;6157048;23;20029;-77
2021/07/31 07:18:33;;;;;;;4.15;0.90;;;;;;;20.64;51.03;96275.16;6156972;23;20022;-77
2021/07/31 07:21:04;;;;;;;1.60;0.80;;;;;;;20.69;51.24;96272.56;6156971;23;20018;-77
2021/07/31 07:23:34;;;;;;;2.05;1.05;;;;;;;20.73;50.95;96269.13;6156734;23;20022;-77
2021/07/31 07:26:01;;;;;;;4.38;1.40;;;;;;;20.77;50.83;96269.41;6156356;23;20049;-77
2021/07/31 07:28:29;;;;;;;1.92;1.00;;;;;;;20.81;51.08;96273.16;6156801;23;20028;-77
2021/07/31 07:30:58;;;;;;;12.43;8.68;;;;;;;20.86;50.85;96259.13;6156789;23;20029;-76
2021/07/31 07:33:26;;;;;;;3.85;2.63;;;;;;;20.89;50.51;96262.09;6156612;23;20100;-77
2021/07/31 07:35:53;;;;;;;5.32;1.90;;;;;;;20.92;50.23;96266.06;6156734;23;20021;-78
2021/07/31 07:38:21;;;;;;;6.55;2.85;;;;;;;20.93;50.51;96263.19;6156366;23;20025;-77
2021/07/31 07:40:49;;;;;;;4.43;2.25;;;;;;;20.98;50.33;96270.34;6156864;23;20021;-77
2021/07/31 07:43:17;;;;;;;3.75;1.40;;;;;;;21.01;50.04;96275.13;6156034;23;20033;-77
2021/07/31 07:45:45;;;;;;;5.25;1.75;;;;;;;21.04;50.14;96269.34;6156275;23;20026;-78
2021/07/31 07:48:13;;;;;;;4.28;1.50;;;;;;;21.07;50.08;96275.97;6155356;23;20032;-77
2021/07/31 07:50:40;;;;;;;5.20;1.25;;;;;;;21.14;50.15;96263.28;6155642;23;20022;-78
2021/07/31 07:53:07;;;;;;;9.70;5.60;;;;;;;21.22;50.02;96273.41;6154549;23;20028;-76
2021/07/31 07:55:35;;;;;;;26.00;18.45;;;;;;;21.31;49.41;96263.91;6155351;23;20022;-77
2021/07/31 07:58:08;;;;;;;9.45;2.30;;;;;;;21.41;48.80;96273.81;6155867;23;20022;-77
2021/07/31 08:00:35;;;;;;;2.83;1.40;;;;;;;21.46;48.93;96271.16;6156225;23;20381;-77
2021/07/31 08:03:03;;;;;;;3.28;2.30;;;;;;;21.49;49.35;96265.34;6154662;23;20017;-78
2021/07/31 08:05:31;;;;;;;3.17;1.60;;;;;;;21.54;49.00;96267.22;6155432;23;20025;-78
2021/07/31 08:07:58;;;;;;;2.70;1.40;;;;;;;21.60;48.66;96258.22;6155563;23;20033;-77
2021/07/31 08:10:25;;;;;;;2.25;1.13;;;;;;;21.69;48.13;96269.13;6155939;23;20017;-78
2021/07/31 08:12:53;;;;;;;3.25;1.90;;;;;;;21.76;47.89;96269.69;6154965;23;20423;-78
2021/07/31 08:15:22;;;;;;;3.88;1.10;;;;;;;21.81;47.26;96267.03;6154686;23;20076;-76
2021/07/31 08:17:49;;;;;;;2.70;1.10;;;;;;;21.84;47.57;96268.38;6154530;23;20032;-75
2021/07/31 08:20:17;;;;;;;2.55;1.35;;;;;;;21.82;47.13;96271.28;6154558;23;20021;-76
2021/07/31 08:22:45;;;;;;;3.22;1.63;;;;;;;21.84;47.60;96265.72;6153762;23;20040;-76
2021/07/31 08:25:12;;;;;;;3.38;1.15;;;;;;;21.83;47.54;96267.59;6154398;23;20029;-76
2021/07/31 08:27:40;;;;;;;2.83;1.30;;;;;;;21.85;47.40;96267.34;6154500;23;20025;-75
2021/07/31 08:30:08;;;;;;;3.25;1.40;;;;;;;21.86;47.46;96263.59;6154599;23;20032;-76
2021/07/31 08:32:37;;;;;;;4.38;1.30;;;;;;;21.87;47.22;96266.00;6154246;23;20357;-76
2021/07/31 08:35:06;;;;;;;4.25;1.23;;;;;;;21.89;46.75;96261.22;6153936;23;20473;-76
2021/07/31 08:37:37;;;;;;;3.63;1.77;;;;;;;21.90;46.64;96264.69;6154715;23;20025;-75
2021/07/31 08:40:09;;;;;;;7.95;1.08;;;;;;;21.93;46.55;96258.84;6154956;23;20021;-76
2021/07/31 08:42:37;;;;;;;2.33;0.90;;;;;;;21.96;46.82;96267.09;6153837;23;20491;-75
2021/07/31 08:45:06;;;;;;;5.28;1.30;;;;;;;22.00;46.29;96259.41;6153980;23;20053;-76
2021/07/31 08:47:33;;;;;;;28.23;21.10;;;;;;;22.00;46.49;96270.81;6154465;23;20026;-76
2021/07/31 08:50:05;;;;;;;3.60;2.45;;;;;;;22.01;46.48;96266.28;6154292;23;20053;-76
2021/07/31 08:52:33;;;;;;;2.90;1.60;;;;;;;22.06;46.26;96262.84;6154142;23;20029;-75
2021/07/31 08:55:01;;;;;;;2.08;1.30;;;;;;;22.13;46.55;96268.72;6153899;23;20104;-76
2021/07/31 08:57:28;;;;;;;1.90;1.10;;;;;;;22.23;46.49;96259.97;6154376;23;20026;-75
2021/07/31 08:59:56;;;;;;;2.55;1.25;;;;;;;22.34;46.43;96253.59;6154416;23;20018;-76
2021/07/31 09:02:24;;;;;;;3.50;1.25;;;;;;;22.45;46.20;96265.84;6154321;23;20365;-75
2021/07/31 09:04:52;;;;;;;3.03;1.25;;;;;;;22.50;45.89;96257.88;6154315;23;20520;-76
2021/07/31 09:07:21;;;;;;;2.28;1.10;;;;;;;22.56;45.34;96256.00;6154870;23;20528;-75
2021/07/31 09:09:49;;;;;;;2.83;1.27;;;;;;;22.63;45.40;96252.03;6155049;23;20022;-76
2021/07/31 09:12:16;;;;;;;1.35;0.85;;;;;;;22.75;44.56;96248.28;6154310;23;20382;-78
2021/07/31 09:14:48;;;;;;;2.30;0.90;;;;;;;22.83;44.69;96253.84;6155376;23;20025;-77
2021/07/31 09:17:26;;;;;;;3.35;0.95;;;;;;;22.93;43.97;96245.06;6156074;23;20021;-77
2021/07/31 09:19:55;;;;;;;3.38;1.25;;;;;;;22.97;44.21;96250.66;6155329;23;20040;-76
2021/07/31 09:22:25;;;;;;;1.70;1.27;;;;;;;23.03;44.72;96254.94;6154922;23;20021;-76
2021/07/31 09:25:08;;;;;;;1.92;0.95;;;;;;;23.12;44.98;96252.50;6157333;23;20025;-77
2021/07/31 09:27:35;;;;;;;2.80;1.30;;;;;;;23.19;43.96;96250.34;6157110;23;20458;-77
2021/07/31 09:30:05;;;;;;;55.13;38.83;;;;;;;23.28;43.75;96255.91;6156309;23;20041;-78
2021/07/31 09:32:38;;;;;;;6.00;3.95;;;;;;;23.34;43.29;96244.97;6155906;23;20169;-76
2021/07/31 09:35:36;;;;;;;4.50;1.55;;;;;;;23.37;43.61;96249.75;6157092;23;20029;-76
2021/07/31 09:38:05;;;;;;;3.33;1.60;;;;;;;23.43;43.33;96253.97;6143624;23;20022;-76
2021/07/31 09:40:33;;;;;;;3.80;1.10;;;;;;;23.44;42.56;96244.94;6156119;23;20331;-76
2021/07/31 09:43:14;;;;;;;2.25;1.13;;;;;;;23.44;43.16;96252.94;6155172;23;20532;-76
2021/07/31 09:45:43;;;;;;;1.95;1.20;;;;;;;23.47;42.86;96250.78;6155579;23;20474;-76
2021/07/31 09:48:11;;;;;;;2.55;1.40;;;;;;;23.50;43.36;96247.56;6156105;23;20025;-76
2021/07/31 09:50:41;;;;;;;2.92;1.20;;;;;;;23.55;43.46;96244.88;6155935;23;20025;-76
2021/07/31 09:53:11;;;;;;;4.90;1.42;;;;;;;23.63;43.53;96245.13;6156670;23;20092;-76
2021/07/31 09:55:46;;;;;;;4.63;1.15;;;;;;;23.72;44.05;96240.00;6155785;23;20024;-76
2021/07/31 09:58:16;;;;;;;2.72;1.42;;;;;;;23.81;44.92;96242.91;6156534;23;20454;-76
2021/07/31 10:00:45;;;;;;;8.80;1.25;;;;;;;23.90;44.07;96235.97;6156547;23;20025;-75
2021/07/31 10:03:14;;;;;;;1.83;1.17;;;;;;;23.97;43.43;96238.31;6155713;23;20021;-76
2021/07/31 10:05:43;;;;;;;3.40;1.52;;;;;;;24.02;42.55;96235.63;6155891;23;20033;-76
2021/07/31 10:08:32;;;;;;;4.38;1.27;;;;;;;24.08;41.91;96226.53;6155611;23;20089;-78
2021/07/31 10:11:00;;;;;;;2.55;1.10;;;;;;;24.16;41.87;96227.78;6156200;23;20022;-78
2021/07/31 10:13:28;;;;;;;3.10;1.55;;;;;;;24.21;41.82;96225.91;6156162;23;20037;-76
2021/07/31 10:15:56;;;;;;;4.22;1.02;;;;;;;24.25;41.24;96220.81;6157294;23;20032;-76
2021/07/31 10:18:26;;;;;;;3.47;1.13;;;;;;;24.30;41.24;96210.09;6155903;23;20028;-76
2021/07/31 10:20:54;;;;;;;2.05;0.80;;;;;;;24.32;39.89;96215.94;6155842;23;20104;-76
2021/07/31 10:23:51;;;;;;;6.60;1.88;;;;;;;24.35;39.46;96236.72;6155619;23;20356;-78
2021/07/31 10:26:20;;;;;;;4.28;2.65;;;;;;;24.39;38.63;96235.06;6153053;23;20025;-78
2021/07/31 10:28:48;;;;;;;3.90;1.20;;;;;;;24.42;38.21;96226.53;6156337;23;20387;-77
2021/07/31 10:31:29;;;;;;;3.45;0.80;;;;;;;24.47;37.71;96225.69;6156166;23;20025;-75
2021/07/31 10:33:57;;;;;;;2.00;1.05;;;;;;;24.50;37.61;96233.16;6154993;23;20026;-75
2021/07/31 10:36:29;;;;;;;2.63;1.20;;;;;;;24.52;37.07;96225.69;6155812;23;20017;-75
2021/07/31 10:38:57;;;;;;;0.93;0.70;;;;;;;24.55;37.56;96219.78;6155885;23;20022;-76
2021/07/31 10:41:55;;;;;;;4.32;2.28;;;;;;;24.56;37.18;96224.03;6157013;23;20022;-78
2021/07/31 10:44:24;;;;;;;7.43;5.65;;;;;;;24.59;37.33;96220.81;6156570;23;20032;-76
2021/07/31 10:47:11;;;;;;;17.27;10.80;;;;;;;24.67;37.30;96216.75;6156623;23;20044;-78
2021/07/31 10:49:40;;;;;;;7.80;1.20;;;;;;;24.75;37.14;96218.00;6157131;23;20035;-77
2021/07/31 10:52:08;;;;;;;4.20;1.02;;;;;;;24.84;37.43;96216.31;6156961;23;20018;-78
2021/07/31 10:54:58;;;;;;;1.85;0.65;;;;;;;24.92;36.91;96218.34;6156504;23;20028;-77
2021/07/31 10:58:08;;;;;;;4.03;0.70;;;;;;;25.00;37.45;96224.97;6157541;23;20050;-77
2021/07/31 11:00:37;;;;;;;1.90;0.80;;;;;;;25.04;36.54;96226.78;6157157;23;20028;-77
2021/07/31 11:03:41;;;;;;;4.40;0.80;;;;;;;25.07;35.69;96228.06;6156989;23;20080;-77
2021/07/31 11:06:09;;;;;;;3.65;0.70;;;;;;;25.08;35.92;96227.81;6157182;23;20298;-78
2021/07/31 11:09:11;;;;;;;0.75;0.63;;;;;;;25.07;35.52;96234.19;6157362;23;20104;-77
2021/07/31 11:11:39;;;;;;;6.22;0.95;;;;;;;25.10;35.95;96224.81;6156853;23;20017;-78
2021/07/31 11:14:08;;;;;;;6.93;1.48;;;;;;;25.14;36.14;96230.41;6157423;23;20021;-77
2021/07/31 11:16:35;;;;;;;2.15;0.80;;;;;;;25.18;36.03;96232.22;6157038;23;20026;-78
2021/07/31 11:19:04;;;;;;;1.40;0.82;;;;;;;25.20;35.79;96232.75;6156553;23;20018;-77
2021/07/31 11:21:34;;;;;;;1.25;0.50;;;;;;;25.24;36.41;96230.31;6156790;23;20028;-78
2021/07/31 11:24:04;;;;;;;;;;;;;;;25.27;36.32;96225.19;6157658;23;20281;-78
2021/07/31 11:26:41;;;;;;;2.20;0.77;;;;;;;25.25;35.53;96226.56;6157159;23;19920;-78
2021/07/31 11:29:13;;;;;;;3.22;0.63;;;;;;;25.25;35.34;96221.22;6156949;23;20450;-78
2021/07/31 11:31:44;;;;;;;2.22;0.80;;;;;;;25.27;35.72;96224.41;6157082;23;20022;-78
2021/07/31 11:34:13;;;;;;;2.95;1.02;;;;;;;25.32;36.09;96229.72;6156429;23;20025;-78
2021/07/31 11:36:42;;;;;;;2.08;0.80;;;;;;;25.37;35.97;96239.53;6156897;23;20509;-77
2021/07/31 11:39:11;;;;;;;1.60;0.70;;;;;;;25.37;35.55;96234.97;6156823;23;20024;-78
2021/07/31 11:41:40;;;;;;;3.83;0.63;;;;;;;25.36;35.68;96243.25;6157044;23;20462;-77
2021/07/31 11:44:11;;;;;;;2.38;0.80;;;;;;;25.36;35.17;96243.25;6156904;23;20021;-77
2021/07/31 11:46:41;;;;;;;2.20;0.90;;;;;;;25.37;35.42;96239.53;6156484;23;20022;-78